Time;durP1;ratioP1;P1;durP2;ratioP2;P2;SDS_P1;SDS_P2;PMS_P1;PMS_P2;Temp;Humidity;BMP_temperature;BMP_pressure;BME280_temperature;BME280_humidity;BME280_pressure;Samples;Min_cycle;Max_cycle;Signal;HPM_P1;HPM_P2
2023/05/02 00:02:05;;;;;;;8.07;4.43;;;15.90;67.60;;;;;;5055583;28;20451;-58
2023/05/02 00:04:32;;;;;;;4.03;3.50;;;15.90;66.80;;;;;;5055815;28;20436;-59
2023/05/02 00:06:59;;;;;;;4.90;4.13;;;15.90;66.80;;;;;;5056025;28;20502;-55
2023/05/02 00:09:25;;;;;;;4.57;3.47;;;15.80;67.50;;;;;;5056302;28;20456;-58
2023/05/02 00:11:55;;;;;;;7.27;4.37;;;15.80;69.30;;;;;;5055962;28;20498;-59
2023/05/02 00:14:22;;;;;;;11.73;4.60;;;15.70;68.20;;;;;;5055972;28;20460;-58
2023/05/02 00:16:50;;;;;;;7.47;4.00;;;15.70;68.20;;;;;;5055740;28;20436;-57
2023/05/02 00:19:19;;;;;;;4.77;3.83;;;15.70;68.10;;;;;;5055667;28;20472;-59
2023/05/02 00:21:48;;;;;;;5.60;4.13;;;15.70;67.50;;;;;;5055647;28;20536;-59
2023/05/02 00:24:17;;;;;;;4.83;3.87;;;15.60;67.70;;;;;;5055571;28;20482;-56
2023/05/02 00:26:45;;;;;;;8.13;4.20;;;15.60;68.00;;;;;;5055854;28;20976;-55
2023/05/02 00:29:11;;;;;;;4.33;3.23;;;15.50;68.00;;;;;;5055585;28;20490;-60
2023/05/02 00:31:40;;;;;;;7.03;4.13;;;15.50;68.00;;;;;;5055019;28;20432;-60
2023/05/02 00:34:09;;;;;;;6.80;4.23;;;15.50;68.50;;;;;;5054984;28;20424;-59
2023/05/02 00:36:36;;;;;;;9.73;3.60;;;15.40;69.50;;;;;;5054941;28;20449;-60
2023/05/02 00:39:03;;;;;;;6.13;3.80;;;15.40;69.90;;;;;;5054555;28;20455;-58
2023/05/02 00:41:30;;;;;;;4.97;4.07;;;15.40;69.20;;;;;;5054642;28;20515;-61
2023/05/02 00:43:58;;;;;;;6.30;3.57;;;15.40;69.70;;;;;;5054925;28;20440;-59
2023/05/02 00:46:25;;;;;;;4.07;3.60;;;15.40;69.80;;;;;;5058183;28;20456;-60
2023/05/02 00:48:52;;;;;;;4.50;3.50;;;15.30;70.40;;;;;;5058290;28;20428;-58
2023/05/02 00:51:21;;;;;;;11.70;4.93;;;15.30;70.70;;;;;;5058163;28;20451;-55
2023/05/02 00:53:48;;;;;;;5.73;4.03;;;15.30;71.30;;;;;;5058083;28;20444;-61
2023/05/02 00:56:15;;;;;;;10.30;3.60;;;15.20;71.50;;;;;;5058225;28;20442;-59
2023/05/02 00:58:43;;;;;;;6.87;4.13;;;15.20;72.10;;;;;;5058706;28;20524;-58
2023/05/02 01:01:26;;;;;;;9.47;4.40;;;15.20;72.40;;;;;;5058597;28;20432;-60
2023/05/02 01:04:04;;;;;;;6.47;3.93;;;15.20;72.80;;;;;;5058928;28;20466;-60
2023/05/02 01:06:45;;;;;;;6.33;5.77;;;15.20;73.50;;;;;;5058443;28;20459;-59
2023/05/02 01:09:27;;;;;;;5.63;3.93;;;15.20;74.30;;;;;;5058932;28;20459;-60
2023/05/02 01:12:02;;;;;;;5.50;3.83;;;15.00;74.70;;;;;;5059303;28;20443;-56
2023/05/02 01:14:30;;;;;;;6.13;3.80;;;15.00;75.50;;;;;;5058785;28;20997;-59
2023/05/02 01:16:58;;;;;;;4.80;4.00;;;14.90;76.90;;;;;;5058789;28;20431;-58
2023/05/02 01:19:32;;;;;;;10.77;4.63;;;14.90;77.40;;;;;;5058659;28;20447;-56
2023/05/02 01:22:06;;;;;;;6.97;4.30;;;14.80;78.20;;;;;;5058664;28;20471;-58
2023/05/02 01:24:41;;;;;;;7.70;4.47;;;14.70;79.50;;;;;;5058793;28;20418;-57
2023/05/02 01:27:17;;;;;;;5.87;3.60;;;14.70;80.40;;;;;;5057928;28;20487;-59
2023/05/02 01:29:50;;;;;;;4.73;4.17;;;14.70;82.20;;;;;;5058405;28;20860;-55
2023/05/02 01:32:18;;;;;;;11.90;4.40;;;14.70;83.10;;;;;;5058253;28;20983;-57
2023/05/02 01:34:49;;;;;;;4.27;3.87;;;14.70;84.30;;;;;;5058440;28;20475;-59
2023/05/02 01:37:18;;;;;;;9.03;4.43;;;14.70;85.80;;;;;;5058313;28;20475;-57
2023/05/02 01:39:48;;;;;;;7.30;4.70;;;14.70;87.60;;;;;;5059197;28;20479;-54
2023/05/02 01:42:20;;;;;;;4.80;3.33;;;14.70;87.60;;;;;;5058230;28;20432;-60
2023/05/02 01:44:50;;;;;;;4.83;3.60;;;14.80;88.70;;;;;;5058043;28;20445;-53
2023/05/02 01:47:21;;;;;;;5.43;4.00;;;14.80;89.80;;;;;;5058030;28;20474;-60
2023/05/02 01:49:50;;;;;;;8.87;4.63;;;14.80;90.50;;;;;;5057782;28;20833;-58
2023/05/02 01:52:20;;;;;;;7.17;4.17;;;14.70;91.70;;;;;;5057662;28;20448;-57
2023/05/02 01:54:50;;;;;;;6.17;4.17;;;14.70;91.80;;;;;;5058286;28;20623;-58
2023/05/02 01:57:18;;;;;;;5.70;4.17;;;14.70;92.40;;;;;;5057029;28;20424;-59
2023/05/02 01:59:50;;;;;;;4.23;3.83;;;14.70;93.20;;;;;;5056974;28;20468;-56
2023/05/02 02:02:17;;;;;;;4.37;3.50;;;14.70;93.90;;;;;;5057593;28;20429;-60
2023/05/02 02:04:47;;;;;;;4.67;3.80;;;14.70;94.60;;;;;;5057924;28;20498;-57
2023/05/02 02:07:14;;;;;;;6.87;3.87;;;14.70;95.10;;;;;;5057219;28;20511;-55
2023/05/02 02:09:43;;;;;;;6.43;4.17;;;14.60;95.60;;;;;;5057669;28;20893;-57
2023/05/02 02:12:14;;;;;;;6.83;3.90;;;14.60;96.10;;;;;;5057328;28;20468;-57
2023/05/02 02:14:46;;;;;;;4.67;3.77;;;14.60;96.30;;;;;;5057438;28;20444;-57
2023/05/02 02:17:25;;;;;;;8.57;4.13;;;14.50;96.90;;;;;;5057657;28;20475;-56
2023/05/02 02:19:55;;;;;;;6.17;3.77;;;14.50;97.20;;;;;;5057662;28;20412;-60
2023/05/02 02:22:26;;;;;;;6.77;5.07;;;14.50;97.50;;;;;;5057604;28;20464;-60
2023/05/02 02:24:54;;;;;;;6.47;3.60;;;14.50;98.10;;;;;;5057820;28;20413;-57
2023/05/02 02:27:23;;;;;;;9.80;3.63;;;14.50;98.60;;;;;;5057406;28;20476;-58
2023/05/02 02:29:50;;;;;;;5.93;4.70;;;14.40;98.90;;;;;;5057379;28;20420;-59
2023/05/02 02:32:18;;;;;;;5.73;3.87;;;14.40;99.90;;;;;;5057523;28;20436;-57
2023/05/02 02:34:45;;;;;;;5.40;3.90;;;14.30;99.90;;;;;;5057398;28;20464;-60
2023/05/02 02:37:16;;;;;;;10.67;4.37;;;14.20;99.90;;;;;;5056668;28;20428;-58
2023/05/02 02:39:55;;;;;;;4.03;3.40;;;14.10;99.90;;;;;;5055483;28;20475;-58
2023/05/02 02:42:34;;;;;;;6.23;4.17;;;14.10;99.90;;;;;;5057331;28;20457;-60
2023/05/02 02:45:09;;;;;;;4.13;3.00;;;14.00;99.90;;;;;;5056874;28;20498;-55
2023/05/02 02:47:44;;;;;;;6.40;3.37;;;13.90;99.90;;;;;;5056784;28;20493;-58
2023/05/02 02:50:32;;;;;;;4.87;3.20;;;13.90;99.90;;;;;;5056760;28;20460;-57
2023/05/02 02:53:04;;;;;;;5.23;3.13;;;13.80;99.90;;;;;;5057546;28;20428;-59
2023/05/02 02:55:38;;;;;;;6.20;3.93;;;13.70;99.90;;;;;;5057157;28;20420;-59
2023/05/02 02:58:16;;;;;;;4.60;3.53;;;13.70;99.90;;;;;;5057088;28;20448;-56
2023/05/02 03:00:44;;;;;;;7.20;3.53;;;13.60;99.90;;;;;;5057289;28;20452;-58
2023/05/02 03:03:17;;;;;;;6.87;3.97;;;13.60;99.90;;;;;;5056758;28;20456;-59
2023/05/02 03:05:47;;;;;;;5.10;3.67;;;13.60;99.90;;;;;;5057064;28;20448;-56
2023/05/02 03:08:14;;;;;;;4.70;3.20;;;13.50;99.90;;;;;;5055849;28;20484;-57
2023/05/02 03:10:41;;;;;;;9.67;3.60;;;13.40;99.90;;;;;;5056910;28;20464;-60
2023/05/02 03:13:08;;;;;;;7.13;3.83;;;13.40;99.90;;;;;;5056711;28;20464;-57
2023/05/02 03:16:14;;;;;;;6.10;4.00;;;13.30;99.90;;;;;;5056838;28;20460;-58
2023/05/02 03:18:43;;;;;;;8.57;3.43;;;13.30;99.90;;;;;;5056900;28;20455;-58
2023/05/02 03:21:10;;;;;;;4.50;3.63;;;13.20;99.90;;;;;;5056711;28;20459;-58
2023/05/02 03:23:40;;;;;;;6.07;3.40;;;13.20;99.90;;;;;;5056940;28;20455;-57
2023/05/02 03:26:07;;;;;;;4.27;3.87;;;13.20;99.90;;;;;;5056791;28;20424;-60
2023/05/02 03:28:35;;;;;;;9.73;3.77;;;13.10;99.90;;;;;;5056301;28;20515;-57
2023/05/02 03:31:02;;;;;;;3.83;2.73;;;13.10;99.90;;;;;;5052873;28;20506;-61
2023/05/02 03:33:31;;;;;;;6.13;3.40;;;13.10;99.90;;;;;;5053296;28;20444;-60
2023/05/02 03:35:59;;;;;;;3.90;3.30;;;13.00;99.90;;;;;;5056471;28;20479;-56
2023/05/02 03:38:26;;;;;;;3.93;3.30;;;12.90;99.90;;;;;;5056612;28;20440;-59
2023/05/02 03:41:00;;;;;;;4.30;3.00;;;12.90;99.90;;;;;;5056748;28;20464;-57
2023/05/02 03:43:27;;;;;;;7.30;2.77;;;12.90;99.90;;;;;;5056847;28;20436;-59
2023/05/02 03:45:53;;;;;;;4.57;2.63;;;12.90;99.90;;;;;;5056516;28;20440;-59
2023/05/02 03:48:20;;;;;;;4.50;2.90;;;12.80;99.90;;;;;;5056394;28;20498;-56
2023/05/02 03:50:47;;;;;;;5.67;2.50;;;12.80;99.90;;;;;;5056510;28;20428;-56
2023/05/02 03:53:22;;;;;;;6.77;2.87;;;12.80;99.90;;;;;;5057095;28;20472;-59
2023/05/02 03:55:50;;;;;;;3.37;3.07;;;12.80;99.90;;;;;;5056797;28;20412;-58
2023/05/02 03:58:17;;;;;;;9.43;3.87;;;12.80;99.90;;;;;;5056329;28;20486;-58
2023/05/02 04:00:44;;;;;;;5.23;3.47;;;12.80;99.90;;;;;;5056333;28;20435;-56
2023/05/02 04:03:11;;;;;;;4.20;2.97;;;12.70;99.90;;;;;;5056167;28;20483;-59
2023/05/02 04:05:46;;;;;;;9.10;2.97;;;12.70;99.90;;;;;;5056066;28;20463;-57
2023/05/02 04:08:12;;;;;;;7.43;3.57;;;12.70;99.90;;;;;;5056375;28;20476;-55
2023/05/02 04:10:41;;;;;;;6.03;3.83;;;12.60;99.90;;;;;;5056117;28;20479;-56
2023/05/02 04:13:09;;;;;;;8.30;4.30;;;12.70;99.90;;;;;;5056485;28;20455;-56
2023/05/02 04:15:37;;;;;;;6.67;3.50;;;12.70;99.90;;;;;;5056097;28;20452;-58
2023/05/02 04:18:04;;;;;;;7.10;3.23;;;12.70;99.90;;;;;;5056475;28;20443;-58
2023/05/02 04:20:31;;;;;;;5.97;3.53;;;12.70;99.90;;;;;;5058399;28;20475;-56
2023/05/02 04:22:58;;;;;;;7.50;3.40;;;12.70;99.90;;;;;;5060358;28;20420;-55
2023/05/02 04:25:25;;;;;;;5.33;3.93;;;12.70;99.90;;;;;;5059905;28;20451;-55
2023/05/02 04:27:53;;;;;;;8.17;2.90;;;12.70;99.90;;;;;;5059713;28;20486;-56
2023/05/02 04:30:20;;;;;;;8.70;2.83;;;12.70;99.90;;;;;;5060009;28;20472;-56
2023/05/02 04:32:47;;;;;;;11.10;2.97;;;12.70;99.90;;;;;;5059670;28;20480;-58
2023/05/02 04:35:16;;;;;;;4.07;2.50;;;12.70;99.90;;;;;;5059391;28;20444;-57
2023/05/02 04:37:43;;;;;;;6.57;3.20;;;12.80;99.90;;;;;;5059362;28;20468;-57
2023/05/02 04:40:11;;;;;;;4.77;2.60;;;12.80;99.90;;;;;;5059861;28;20448;-56
2023/05/02 04:42:38;;;;;;;3.10;2.33;;;12.90;99.90;;;;;;5059605;28;20444;-54
2023/05/02 04:45:08;;;;;;;3.13;2.57;;;12.90;99.90;;;;;;5059875;28;20432;-56
2023/05/02 04:47:35;;;;;;;8.13;3.23;;;13.00;99.90;;;;;;5059044;28;20484;-57
2023/05/02 04:50:01;;;;;;;5.83;2.80;;;13.00;99.90;;;;;;5059225;28;20504;-51
2023/05/02 04:52:29;;;;;;;5.60;3.60;;;13.00;99.90;;;;;;5059457;28;20447;-56
2023/05/02 04:54:56;;;;;;;6.23;3.00;;;13.10;99.90;;;;;;5058815;28;20483;-57
2023/05/02 04:57:23;;;;;;;4.73;3.20;;;13.10;99.90;;;;;;5059208;28;20471;-58
2023/05/02 04:59:50;;;;;;;4.83;3.33;;;13.20;99.90;;;;;;5059509;28;20495;-55
2023/05/02 05:02:18;;;;;;;3.00;1.70;;;13.20;99.90;;;;;;5059252;28;20442;-55
2023/05/02 05:04:45;;;;;;;3.13;2.50;;;13.30;99.90;;;;;;5059225;28;20424;-56
2023/05/02 05:07:12;;;;;;;8.67;3.70;;;13.30;99.90;;;;;;5059291;28;20447;-54
2023/05/02 05:09:39;;;;;;;3.07;2.60;;;13.40;99.90;;;;;;5059186;28;20475;-54
2023/05/02 05:12:06;;;;;;;6.37;3.37;;;13.40;99.90;;;;;;5059112;28;20460;-53
2023/05/02 05:14:33;;;;;;;5.57;2.73;;;13.40;99.90;;;;;;5058960;28;20451;-58
2023/05/02 05:17:00;;;;;;;6.23;3.40;;;13.60;99.90;;;;;;5058668;28;20468;-52
2023/05/02 05:19:28;;;;;;;5.37;3.30;;;13.50;99.90;;;;;;5058739;28;20420;-55
2023/05/02 05:21:55;;;;;;;5.43;3.00;;;13.50;99.90;;;;;;5058844;28;20471;-58
2023/05/02 05:24:22;;;;;;;9.63;3.43;;;13.40;99.90;;;;;;5059021;28;20426;-57
2023/05/02 05:26:49;;;;;;;7.33;3.30;;;13.40;99.90;;;;;;5058882;28;20439;-57
2023/05/02 05:29:17;;;;;;;12.70;3.87;;;13.40;99.90;;;;;;5058477;28;20571;-56
2023/05/02 05:31:44;;;;;;;5.83;3.10;;;13.30;99.90;;;;;;5057750;28;20455;-55
2023/05/02 05:34:11;;;;;;;6.23;3.50;;;13.30;99.90;;;;;;5046794;28;20511;-58
2023/05/02 05:36:41;;;;;;;4.57;3.00;;;13.30;99.90;;;;;;5036660;28;20448;-59
2023/05/02 05:39:09;;;;;;;5.23;3.40;;;13.40;99.90;;;;;;5036746;28;20530;-58
2023/05/02 05:41:37;;;;;;;4.40;3.40;;;13.30;99.90;;;;;;5036883;28;20452;-57
2023/05/02 05:44:04;;;;;;;5.70;3.50;;;13.30;99.90;;;;;;5038765;28;20455;-58
2023/05/02 05:46:31;;;;;;;7.83;3.63;;;13.40;99.90;;;;;;5047219;28;20479;-58
2023/05/02 05:48:58;;;;;;;4.87;4.03;;;13.40;99.90;;;;;;5047190;28;20610;-58
2023/05/02 05:51:26;;;;;;;10.43;3.30;;;13.40;99.90;;;;;;5047712;28;20547;-58
2023/05/02 05:53:54;;;;;;;5.40;3.73;;;13.40;99.90;;;;;;5047080;28;20520;-57
2023/05/02 05:56:22;;;;;;;5.60;3.63;;;13.40;99.90;;;;;;5046640;28;20468;-59
2023/05/02 05:58:49;;;;;;;8.93;3.70;;;13.30;99.90;;;;;;5046749;28;20448;-57
2023/05/02 06:01:15;;;;;;;4.83;3.33;;;13.30;99.90;;;;;;5048663;28;20468;-56
2023/05/02 06:03:45;;;;;;;6.00;3.97;;;13.30;99.90;;;;;;5056646;28;20448;-57
2023/05/02 06:06:12;;;;;;;5.70;3.80;;;13.20;99.90;;;;;;5056701;28;20448;-56
2023/05/02 06:08:41;;;;;;;6.50;4.20;;;13.20;99.90;;;;;;5055833;28;20488;-56
2023/05/02 06:11:10;;;;;;;7.83;4.03;;;13.20;99.90;;;;;;5056466;28;20455;-56
2023/05/02 06:13:37;;;;;;;4.60;3.10;;;13.30;99.90;;;;;;5057235;28;20464;-55
2023/05/02 06:16:05;;;;;;;7.37;3.53;;;13.50;99.90;;;;;;5057294;28;20485;-58
2023/05/02 06:18:35;;;;;;;8.50;3.83;;;13.60;99.90;;;;;;5057377;28;20429;-55
2023/05/02 06:21:05;;;;;;;6.50;4.17;;;13.60;99.90;;;;;;5057410;28;20423;-54
2023/05/02 06:23:33;;;;;;;8.70;3.67;;;13.70;99.90;;;;;;5057585;28;20436;-58
2023/05/02 06:26:01;;;;;;;6.37;4.07;;;13.70;99.90;;;;;;5056976;28;20428;-56
2023/05/02 06:28:30;;;;;;;6.00;3.83;;;13.70;99.90;;;;;;5057605;28;20526;-57
2023/05/02 06:30:58;;;;;;;8.70;4.00;;;13.70;99.90;;;;;;5057370;28;20535;-58
2023/05/02 06:33:24;;;;;;;5.70;3.70;;;13.80;99.90;;;;;;5057502;28;20448;-55
2023/05/02 06:35:52;;;;;;;8.37;3.53;;;13.80;99.90;;;;;;5057192;28;20463;-52
2023/05/02 06:38:19;;;;;;;6.43;4.00;;;13.80;99.90;;;;;;5057223;28;20440;-54
2023/05/02 06:40:46;;;;;;;7.30;5.20;;;13.80;99.90;;;;;;5056426;28;20536;-53
2023/05/02 06:43:13;;;;;;;9.13;5.00;;;13.80;99.90;;;;;;5057081;28;20475;-54
2023/05/02 06:45:41;;;;;;;9.70;4.30;;;13.80;99.90;;;;;;5056907;28;20448;-56
2023/05/02 06:48:08;;;;;;;8.13;4.90;;;13.80;99.90;;;;;;5057194;28;20460;-53
2023/05/02 06:50:35;;;;;;;14.10;4.70;;;13.80;99.90;;;;;;5057189;28;20552;-55
2023/05/02 06:53:03;;;;;;;8.90;5.93;;;13.80;99.90;;;;;;5057051;28;20462;-56
2023/05/02 06:55:30;;;;;;;10.57;5.40;;;13.70;99.90;;;;;;5057103;28;20528;-56
2023/05/02 06:57:57;;;;;;;10.47;5.13;;;13.70;99.90;;;;;;5057085;28;20444;-55
2023/05/02 07:00:24;;;;;;;10.60;5.63;;;13.90;99.90;;;;;;5056693;28;20469;-55
2023/05/02 07:02:53;;;;;;;13.70;6.07;;;14.00;99.90;;;;;;5056612;28;20543;-56
2023/05/02 07:05:20;;;;;;;7.47;5.00;;;14.00;99.90;;;;;;5056543;28;20464;-57
2023/05/02 07:07:46;;;;;;;12.83;5.57;;;14.00;99.90;;;;;;5056707;28;20424;-56
2023/05/02 07:10:13;;;;;;;7.40;4.17;;;14.20;99.90;;;;;;5056897;28;20487;-55
2023/05/02 07:12:40;;;;;;;8.57;4.93;;;14.20;99.90;;;;;;5056380;28;20455;-58
2023/05/02 07:15:08;;;;;;;6.70;4.10;;;14.30;99.90;;;;;;5056494;28;20437;-58
2023/05/02 07:17:34;;;;;;;11.30;5.20;;;14.20;99.90;;;;;;5056751;28;20460;-57
2023/05/02 07:20:03;;;;;;;9.13;4.97;;;14.30;99.90;;;;;;5056235;28;20464;-58
2023/05/02 07:22:30;;;;;;;7.70;5.20;;;14.40;99.90;;;;;;5056788;28;20439;-57
2023/05/02 07:24:58;;;;;;;6.47;4.63;;;14.50;99.90;;;;;;5056295;28;20452;-58
2023/05/02 07:27:25;;;;;;;7.07;4.50;;;14.50;99.90;;;;;;5056413;28;20456;-58
2023/05/02 07:29:52;;;;;;;7.40;4.70;;;14.50;99.90;;;;;;5056126;28;20483;-56
2023/05/02 07:32:21;;;;;;;7.77;4.50;;;14.70;99.90;;;;;;5056058;28;20428;-58
2023/05/02 07:34:48;;;;;;;6.60;4.23;;;15.00;99.90;;;;;;5056331;28;20498;-53
2023/05/02 07:37:16;;;;;;;6.20;4.57;;;15.20;99.90;;;;;;5056340;28;20500;-54
2023/05/02 07:39:43;;;;;;;20.73;10.53;;;15.30;99.90;;;;;;5056078;28;20472;-54
2023/05/02 07:42:10;;;;;;;8.53;5.37;;;15.20;99.90;;;;;;5055758;28;20429;-57
2023/05/02 07:44:37;;;;;;;7.30;5.60;;;15.20;99.90;;;;;;5055860;28;20508;-57
2023/05/02 07:47:04;;;;;;;6.07;4.60;;;15.30;99.90;;;;;;5056100;28;20460;-56
2023/05/02 07:49:31;;;;;;;8.83;5.03;;;15.20;99.90;;;;;;5052972;28;20498;-58
2023/05/02 07:51:58;;;;;;;6.93;5.17;;;15.20;99.90;;;;;;5051492;28;20528;-58
2023/05/02 07:54:26;;;;;;;6.53;3.93;;;15.20;99.90;;;;;;5051348;28;20448;-57
2023/05/02 07:56:53;;;;;;;7.70;3.70;;;15.10;99.90;;;;;;5051949;28;20492;-57
2023/05/02 07:59:20;;;;;;;10.17;4.57;;;15.10;99.90;;;;;;5051072;28;20893;-59
2023/05/02 08:01:47;;;;;;;8.10;4.20;;;15.10;99.90;;;;;;5052119;28;20448;-58
2023/05/02 08:04:14;;;;;;;7.20;4.90;;;15.00;99.90;;;;;;5051779;28;20467;-58
2023/05/02 08:06:41;;;;;;;9.30;4.67;;;15.00;99.90;;;;;;5051598;28;20459;-57
2023/05/02 08:09:09;;;;;;;7.23;4.60;;;14.90;99.90;;;;;;5052051;28;20498;-56
2023/05/02 08:11:37;;;;;;;12.43;4.27;;;14.80;99.90;;;;;;5052558;28;20436;-57
2023/05/02 08:14:04;;;;;;;9.83;4.60;;;14.70;99.90;;;;;;5052345;28;20496;-55
2023/05/02 08:16:31;;;;;;;13.33;3.90;;;14.70;99.90;;;;;;5052722;28;20488;-60
2023/05/02 08:18:58;;;;;;;5.67;3.57;;;14.70;99.90;;;;;;5050801;28;20436;-58
2023/05/02 08:21:26;;;;;;;6.90;3.93;;;14.70;99.90;;;;;;5034376;28;20638;-55
2023/05/02 08:23:57;;;;;;;8.13;4.67;;;14.80;99.90;;;;;;5034015;28;20547;-57
2023/05/02 08:26:25;;;;;;;6.43;4.30;;;14.90;99.90;;;;;;5034306;28;20433;-56
2023/05/02 08:28:53;;;;;;;9.50;3.30;;;14.90;99.90;;;;;;5034168;28;20487;-57
2023/05/02 08:31:20;;;;;;;8.30;3.90;;;15.00;99.90;;;;;;5033751;28;20503;-59
2023/05/02 08:33:47;;;;;;;7.97;4.17;;;15.00;99.90;;;;;;5034631;28;20518;-55
2023/05/02 08:36:15;;;;;;;6.87;3.70;;;14.90;99.90;;;;;;5034084;28;20539;-57
2023/05/02 08:38:42;;;;;;;5.53;3.93;;;14.90;99.90;;;;;;5033867;28;20515;-57
2023/05/02 08:41:13;;;;;;;7.30;4.30;;;14.70;99.90;;;;;;5034210;28;20540;-57
2023/05/02 08:43:41;;;;;;;8.70;4.30;;;14.70;99.90;;;;;;5034161;28;20769;-57
2023/05/02 08:46:10;;;;;;;10.90;3.77;;;14.80;99.90;;;;;;5033829;28;20487;-57
2023/05/02 08:48:39;;;;;;;6.70;4.10;;;14.80;99.90;;;;;;5034031;28;20551;-57
2023/05/02 08:51:09;;;;;;;9.13;4.30;;;14.80;99.90;;;;;;5033734;28;20444;-57
2023/05/02 08:53:38;;;;;;;4.60;3.37;;;14.80;99.90;;;;;;5033869;28;20476;-59
2023/05/02 08:56:07;;;;;;;11.40;3.83;;;14.80;99.90;;;;;;5034506;28;20531;-56
2023/05/02 08:58:34;;;;;;;5.03;3.60;;;14.90;99.90;;;;;;5033539;28;20543;-54
2023/05/02 09:01:03;;;;;;;10.23;4.17;;;15.10;99.90;;;;;;5033647;28;20444;-57
2023/05/02 09:03:33;;;;;;;4.40;3.37;;;15.50;99.90;;;;;;5033861;28;20977;-58
2023/05/02 09:06:06;;;;;;;6.60;3.50;;;15.80;99.90;;;;;;5033947;28;20518;-57
2023/05/02 09:08:33;;;;;;;4.70;3.03;;;15.90;99.90;;;;;;5038698;28;20835;-58
2023/05/02 09:11:01;;;;;;;3.77;2.73;;;15.90;99.90;;;;;;5038528;28;20523;-58
2023/05/02 09:13:30;;;;;;;3.30;2.83;;;16.00;99.90;;;;;;5038810;28;20439;-58
2023/05/02 09:15:59;;;;;;;4.53;2.80;;;15.80;99.90;;;;;;5038913;28;20484;-58
2023/05/02 09:18:29;;;;;;;6.90;3.77;;;15.70;99.90;;;;;;5041246;28;20519;-56
2023/05/02 09:20:58;;;;;;;4.87;2.87;;;15.50;99.90;;;;;;5041363;28;20441;-57
2023/05/02 09:23:42;;;;;;;4.10;2.87;;;15.50;99.90;;;;;;5043638;28;20436;-58
2023/05/02 09:26:14;;;;;;;4.63;3.20;;;15.30;99.90;;;;;;5044002;28;20424;-57
2023/05/02 09:28:43;;;;;;;5.27;3.73;;;15.30;99.90;;;;;;5043741;28;20467;-57
2023/05/02 09:31:11;;;;;;;5.57;3.03;;;15.30;99.90;;;;;;5044376;28;20562;-57
2023/05/02 09:33:39;;;;;;;4.80;3.10;;;15.30;99.90;;;;;;5044546;28;20523;-54
2023/05/02 09:36:08;;;;;;;3.53;2.10;;;15.20;99.90;;;;;;5044579;28;20444;-57
2023/05/02 09:38:35;;;;;;;4.07;2.60;;;15.30;99.90;;;;;;5044756;28;20467;-56
2023/05/02 09:41:03;;;;;;;2.97;2.30;;;15.30;99.90;;;;;;5044912;28;20447;-57
2023/05/02 09:43:31;;;;;;;2.50;1.80;;;15.20;99.90;;;;;;5044235;28;20443;-57
2023/05/02 09:46:02;;;;;;;4.73;2.80;;;15.20;99.90;;;;;;5044164;28;20479;-58
2023/05/02 09:48:30;;;;;;;3.47;3.07;;;15.00;99.90;;;;;;5045865;28;20428;-58
2023/05/02 09:50:57;;;;;;;4.20;2.60;;;14.90;99.90;;;;;;5044790;28;20518;-58
2023/05/02 09:53:28;;;;;;;3.63;2.40;;;14.80;99.90;;;;;;5044232;28;20487;-54
2023/05/02 09:56:02;;;;;;;7.13;2.23;;;14.70;99.90;;;;;;5044636;28;20487;-57
2023/05/02 09:58:30;;;;;;;4.30;3.00;;;14.60;99.90;;;;;;5045011;28;20467;-59
2023/05/02 10:00:58;;;;;;;3.17;2.73;;;15.10;99.90;;;;;;5043909;28;20470;-57
2023/05/02 10:03:27;;;;;;;5.27;2.47;;;14.70;99.90;;;;;;5043933;28;20543;-57
2023/05/02 10:05:55;;;;;;;7.17;3.23;;;14.80;99.90;;;;;;5044329;28;20543;-59
2023/05/02 10:08:24;;;;;;;4.07;2.70;;;14.90;99.90;;;;;;5043904;28;20468;-58
2023/05/02 10:10:54;;;;;;;5.10;2.93;;;15.20;99.90;;;;;;5043312;28;20479;-58
2023/05/02 10:13:23;;;;;;;4.40;2.53;;;15.30;99.90;;;;;;5045636;28;20502;-53
2023/05/02 10:15:58;;;;;;;3.37;2.20;;;15.40;99.90;;;;;;5044780;28;20471;-59
2023/05/02 10:18:28;;;;;;;4.73;3.40;;;15.50;99.90;;;;;;5044378;28;20463;-57
2023/05/02 10:21:00;;;;;;;4.80;3.07;;;15.70;99.90;;;;;;5043533;28;20877;-57
2023/05/02 10:23:29;;;;;;;4.47;3.37;;;15.50;99.90;;;;;;5044328;28;20790;-58
2023/05/02 10:25:58;;;;;;;5.43;2.90;;;15.30;99.90;;;;;;5044789;28;20515;-58
2023/05/02 10:28:26;;;;;;;5.33;3.20;;;15.20;99.90;;;;;;5044843;28;20444;-56
2023/05/02 10:30:55;;;;;;;4.20;2.77;;;15.10;99.90;;;;;;5044726;28;20516;-58
2023/05/02 10:33:23;;;;;;;6.43;2.70;;;15.00;99.90;;;;;;5044677;28;20444;-56
2023/05/02 10:35:50;;;;;;;5.80;2.77;;;14.90;99.90;;;;;;5044262;28;20555;-57
2023/05/02 10:38:19;;;;;;;6.13;3.30;;;15.00;99.90;;;;;;5043501;28;20444;-57
2023/05/02 10:40:57;;;;;;;3.07;2.10;;;15.10;99.90;;;;;;5043068;28;20464;-59
2023/05/02 10:43:28;;;;;;;10.93;2.80;;;15.10;99.90;;;;;;5043266;28;20814;-55
2023/05/02 10:45:55;;;;;;;5.20;2.77;;;14.90;99.90;;;;;;5043343;28;20433;-58
2023/05/02 10:48:25;;;;;;;4.63;2.47;;;14.60;99.90;;;;;;5045047;28;20471;-58
2023/05/02 10:50:53;;;;;;;3.10;2.63;;;14.50;99.90;;;;;;5044955;28;20492;-57
2023/05/02 10:53:29;;;;;;;2.80;2.07;;;14.20;99.90;;;;;;5045222;28;20531;-57
2023/05/02 10:56:27;;;;;;;3.70;2.57;;;14.10;99.90;;;;;;5045069;28;20480;-59
2023/05/02 10:59:28;;;;;;;3.03;2.20;;;14.20;99.90;;;;;;5045241;28;20432;-58
2023/05/02 11:01:55;;;;;;;3.67;2.43;;;14.20;99.90;;;;;;5044367;28;20490;-57
2023/05/02 11:04:22;;;;;;;7.73;2.63;;;14.10;99.90;;;;;;5044584;28;20496;-56
2023/05/02 11:07:19;;;;;;;3.10;2.10;;;14.10;99.90;;;;;;5044034;28;20460;-56
2023/05/02 11:09:46;;;;;;;3.00;2.30;;;14.00;99.90;;;;;;5000604;28;20480;-58
2023/05/02 11:12:43;;;;;;;3.77;2.13;;;13.90;99.90;;;;;;5044546;28;20447;-58
2023/05/02 11:15:11;;;;;;;4.43;2.40;;;13.80;99.90;;;;;;5044751;28;20479;-55
2023/05/02 11:17:59;;;;;;;4.67;3.60;;;13.60;99.90;;;;;;5044376;28;20498;-53
2023/05/02 11:20:26;;;;;;;8.93;3.00;;;13.50;99.90;;;;;;5047206;28;20459;-54
2023/05/02 11:22:58;;;;;;;8.50;3.73;;;13.10;99.90;;;;;;5047600;28;20470;-55
2023/05/02 11:25:35;;;;;;;9.03;3.50;;;13.00;99.90;;;;;;5046014;28;20424;-55
2023/05/02 11:28:03;;;;;;;7.80;4.13;;;13.00;99.90;;;;;;5045409;28;20452;-57
2023/05/02 11:30:42;;;;;;;6.73;3.70;;;13.10;99.90;;;;;;5044711;28;20789;-54
2023/05/02 11:33:18;;;;;;;6.53;3.87;;;13.00;99.90;;;;;;5046084;28;20487;-59
2023/05/02 11:35:46;;;;;;;5.30;3.70;;;13.10;99.90;;;;;;5045965;28;20432;-58
2023/05/02 11:38:15;;;;;;;12.33;3.77;;;13.30;99.90;;;;;;5046209;28;20510;-57
2023/05/02 11:40:51;;;;;;;4.23;3.07;;;13.20;99.90;;;;;;5046019;28;20435;-54
2023/05/02 11:43:20;;;;;;;10.37;3.67;;;13.40;99.90;;;;;;5045313;28;20479;-56
2023/05/02 11:45:48;;;;;;;7.23;3.37;;;13.40;99.90;;;;;;5045288;28;20460;-58
2023/05/02 11:48:17;;;;;;;8.13;3.00;;;13.60;99.90;;;;;;5044971;28;20499;-57
2023/05/02 11:50:45;;;;;;;8.63;4.00;;;13.70;99.90;;;;;;5044346;28;20535;-57
2023/05/02 11:53:13;;;;;;;9.63;3.70;;;13.90;99.90;;;;;;5052194;28;20424;-54
2023/05/02 11:55:46;;;;;;;7.73;2.90;;;14.10;99.90;;;;;;5056301;28;20448;-55
2023/05/02 11:58:14;;;;;;;3.20;2.60;;;14.30;99.90;;;;;;5056429;28;20435;-54
2023/05/02 12:00:45;;;;;;;3.57;2.50;;;14.20;99.90;;;;;;5056168;28;20477;-48
2023/05/02 12:03:22;;;;;;;4.23;3.00;;;14.20;99.90;;;;;;5056233;28;20435;-50
2023/05/02 12:05:49;;;;;;;6.90;3.53;;;14.10;99.90;;;;;;5056317;28;20468;-58
2023/05/02 12:08:20;;;;;;;5.27;2.83;;;14.00;99.90;;;;;;5056227;28;20473;-56
2023/05/02 12:10:48;;;;;;;3.77;2.30;;;13.90;99.90;;;;;;5055038;28;20472;-55
2023/05/02 12:13:15;;;;;;;5.93;3.17;;;13.80;99.90;;;;;;5054466;28;20444;-55
2023/05/02 12:15:42;;;;;;;5.40;2.40;;;13.60;99.90;;;;;;5054916;28;20419;-57
2023/05/02 12:18:13;;;;;;;6.50;2.70;;;13.60;99.90;;;;;;5054604;28;20452;-55
2023/05/02 12:20:42;;;;;;;3.90;2.10;;;13.70;99.90;;;;;;5055512;28;20439;-59
2023/05/02 12:23:10;;;;;;;4.50;2.87;;;13.70;99.90;;;;;;5054654;28;20468;-58
2023/05/02 12:25:40;;;;;;;8.50;3.83;;;13.50;99.90;;;;;;5054787;28;20448;-57
2023/05/02 12:28:08;;;;;;;4.77;3.10;;;13.30;99.90;;;;;;5054511;28;20452;-56
2023/05/02 12:30:38;;;;;;;4.10;3.17;;;13.30;99.90;;;;;;5054811;28;20464;-58
2023/05/02 12:33:06;;;;;;;8.17;3.20;;;13.40;99.90;;;;;;5054340;28;20487;-59
2023/05/02 12:35:35;;;;;;;5.70;2.50;;;13.50;99.90;;;;;;5054183;28;20456;-59
2023/05/02 12:38:12;;;;;;;6.90;3.27;;;13.60;99.90;;;;;;5055285;28;20483;-59
2023/05/02 12:40:39;;;;;;;4.07;2.17;;;13.60;99.90;;;;;;5055329;28;20420;-57
2023/05/02 12:43:09;;;;;;;6.30;2.63;;;13.50;99.90;;;;;;5058157;28;20450;-59
2023/05/02 12:45:38;;;;;;;7.07;4.83;;;13.70;99.90;;;;;;5058169;28;20535;-59
2023/05/02 12:48:19;;;;;;;4.63;2.63;;;14.00;99.90;;;;;;5058640;28;20440;-59
2023/05/02 12:50:48;;;;;;;5.37;3.40;;;14.20;99.90;;;;;;5058897;28;20505;-56
2023/05/02 12:53:16;;;;;;;9.23;3.27;;;14.30;99.90;;;;;;5058864;28;20462;-57
2023/05/02 12:55:43;;;;;;;4.60;2.60;;;14.50;99.90;;;;;;5058072;28;20454;-56
2023/05/02 12:58:13;;;;;;;9.83;3.50;;;14.80;99.90;;;;;;5058127;28;20446;-58